Data for 05/11/2006

Time Sea-Level Adjusted Pressure Absolute Pressure Temperature Relative Humidity Dew Point   
(mb) (inHg) (mb) (inHg) (C) (F) (%) (C) (F)
00:05 1023 30.21 852 25.16 5.8 42.4 44 -5.6 22
00:10 1023 30.21 852 25.16 5.8 42.4 44 -5.6 22
00:15 1023 30.21 852 25.16 5.7 42.3 44 -5.5 22
00:20 1023 30.21 852 25.16 5.6 42.1 45 -5.4 22.3
00:25 1023 30.21 852 25.16 5.5 41.8 46 -5.4 22.4
00:30 1023 30.21 852 25.16 5.4 41.8 45 -5.6 22
00:35 1023 30.21 852 25.16 5.5 41.9 44 -5.8 21.6
00:40 1023 30.21 852 25.16 5.5 41.9 45 -5.5 22.1
00:45 1023 30.21 852 25.16 5.4 41.6 44 -5.8 21.5
00:50 1023 30.21 852 25.16 5.5 41.9 44 -5.9 21.4
00:55 1023 30.21 852 25.16 5.7 42.2 43 -5.9 21.4
01:00 1023 30.21 852 25.16 5.6 42.1 44 -5.7 21.7
01:05 1023 30.21 852 25.16 5.5 41.9 44 -5.9 21.4
01:10 1023 30.21 852 25.16 5.6 42.1 44 -5.8 21.5
01:15 1023 30.21 852 25.16 5.6 42.1 44 -5.7 21.8
01:20 1023 30.21 852 25.16 5.6 42.1 43 -6 21.2
01:25 1023 30.21 852 25.16 5.5 41.9 44 -5.8 21.6
01:30 1023 30.21 852 25.16 5.3 41.5 44 -5.9 21.5
01:35 1023 30.21 852 25.16 5.1 41.2 45 -5.9 21.5
01:40 1023 30.21 852 25.16 5.1 41.1 45 -6 21.3
01:45 1023 30.21 852 25.16 5.1 41.2 44 -6.2 20.8
01:50 1023 30.21 852 25.16 5.2 41.4 43 -6.2 20.9
01:55 1023 30.21 852 25.16 5 41.1 45 -5.9 21.4
02:00 1023 30.21 852 25.16 4.9 40.8 45 -6.1 21
02:05 1022 30.18 852 25.16 4.8 40.7 45 -6.1 21
02:10 1022 30.18 852 25.16 4.7 40.5 46 -5.9 21.3
02:15 1022 30.18 852 25.16 4.7 40.4 46 -5.9 21.4
02:20 1022 30.18 852 25.16 4.5 40.1 47 -5.9 21.4
02:25 1022 30.18 852 25.16 4.5 40 45 -6.4 20.5
02:30 1022 30.18 852 25.16 4.7 40.5 45 -6.2 20.9
02:35 1022 30.18 852 25.16 4.7 40.4 45 -6.3 20.7
02:40 1022 30.18 852 25.16 4.7 40.5 45 -6.2 20.8
02:45 1022 30.18 852 25.16 4.7 40.5 46 -6.1 21.1
02:50 1022 30.18 852 25.16 4.6 40.3 45 -6.3 20.7
02:55 1022 30.18 852 25.16 4.9 40.9 43 -6.6 20.2
03:00 1022 30.18 852 25.16 5 40.9 44 -6.4 20.5
03:05 1022 30.18 852 25.16 5.1 41.3 43 -6.4 20.4
03:10 1022 30.18 851 25.13 5.4 41.6 43 -6.3 20.6
03:15 1022 30.18 852 25.16 5.4 41.7 42 -6.5 20.3
03:20 1022 30.18 852 25.16 5.1 41.2 44 -6.2 20.8
03:25 1022 30.18 852 25.16 4.9 40.8 44 -6.4 20.5
03:30 1022 30.18 852 25.16 4.8 40.7 45 -6.2 20.8
03:35 1022 30.18 852 25.16 4.6 40.3 45 -6.3 20.7
03:40 1022 30.18 852 25.16 4.5 40.1 45 -6.4 20.4
03:45 1022 30.18 852 25.16 4.4 40 44 -6.7 20
03:50 1022 30.18 852 25.16 4.2 39.6 45 -6.6 20.1
03:55 1022 30.18 852 25.16 4.1 39.4 44 -7.1 19.1
04:00 1022 30.18 852 25.16 4.5 40.1 43 -7 19.3
04:05 1022 30.18 852 25.16 4.7 40.5 42 -7.3 18.9
04:10 1022 30.18 852 25.16 4.9 40.8 42 -7.1 19.3
04:15 1022 30.18 852 25.16 4.7 40.5 43 -6.9 19.5
04:20 1022 30.18 852 25.16 4.4 39.9 44 -6.7 20
04:25 1022 30.18 852 25.16 3.9 39 47 -6.5 20.3
04:30 1022 30.18 852 25.16 4.2 39.5 44 -6.9 19.5
04:35 1022 30.18 852 25.16 4.3 39.8 45 -6.5 20.2
04:40 1022 30.18 852 25.16 4.2 39.6 45 -6.6 20.2
04:45 1022 30.18 852 25.16 4 39.1 46 -6.7 19.9
04:50 1022 30.18 852 25.16 3.7 38.6 46 -6.9 19.5
04:55 1022 30.18 852 25.16 3.6 38.4 47 -6.8 19.8
05:00 1022 30.18 852 25.16 3.6 38.5 45 -7.2 19.1
05:05 1022 30.18 852 25.16 3.7 38.6 46 -6.8 19.7
05:10 1022 30.18 852 25.16 3.6 38.4 46 -7 19.3
05:15 1022 30.18 851 25.13 3.4 38.2 47 -6.8 19.8
05:20 1022 30.18 851 25.13 3.4 38.1 47 -6.9 19.7
05:25 1022 30.18 851 25.13 3.5 38.2 47 -6.8 19.7
05:30 1022 30.18 851 25.13 3.6 38.4 47 -6.7 20
05:35 1022 30.18 851 25.13 3.7 38.7 47 -6.6 20.2
05:40 1022 30.18 851 25.13 3.6 38.4 48 -6.5 20.2
05:45 1022 30.18 851 25.13 3.6 38.5 48 -6.5 20.3
05:50 1022 30.18 851 25.13 3.5 38.3 48 -6.5 20.3
05:55 1022 30.18 851 25.13 3.3 37.9 48 -6.6 20.1
06:00 1022 30.18 851 25.13 3.2 37.8 49 -6.5 20.2
06:05 1022 30.18 851 25.13 3.3 38 48 -6.6 20.2
06:10 1022 30.18 851 25.13 3.3 37.9 48 -6.7 19.9
06:15 1022 30.18 851 25.13 3.5 38.4 47 -6.7 19.9
06:20 1022 30.18 851 25.13 3.8 38.8 46 -6.7 19.9
06:25 1022 30.18 851 25.13 3.9 39 46 -6.6 20.2
06:30 1022 30.18 851 25.13 3.7 38.7 48 -6.4 20.5
06:35 1022 30.18 851 25.13 3.8 38.8 46 -6.8 19.8
06:40 1022 30.18 851 25.13 4.1 39.3 45 -6.9 19.5
06:45 1022 30.18 851 25.13 4.4 40 44 -6.8 19.8
06:50 1022 30.18 851 25.13 4.5 40 45 -6.4 20.4
06:55 1022 30.18 851 25.13 4.4 39.9 45 -6.4 20.5
07:00 1022 30.18 851 25.13 4.3 39.8 45 -6.5 20.3
07:05 1022 30.18 851 25.13 4.5 40.2 45 -6.5 20.3
07:10 1022 30.18 851 25.13 4.6 40.3 46 -6 21.1
07:15 1022 30.18 851 25.13 4.7 40.5 45 -6.2 20.9
07:20 1022 30.18 851 25.13 4.9 40.8 46 -5.8 21.6
07:25 1022 30.18 851 25.13 4.8 40.7 46 -5.8 21.5
07:30 1022 30.18 851 25.13 5.1 41.2 45 -5.9 21.4
07:35 1022 30.18 851 25.13 5.4 41.8 44 -5.9 21.4
07:40 1022 30.18 851 25.13 5.7 42.3 43 -6 21.2
07:45 1022 30.18 851 25.13 6 42.8 41 -6.1 21
07:50 1022 30.18 851 25.13 6.4 43.5 40 -6.4 20.5
07:55 1022 30.18 851 25.13 6.8 44.3 39 -6.1 20.9
08:00 1022 30.18 851 25.13 7.1 44.9 38 -6.4 20.5
08:05 1022 30.18 851 25.13 7.5 45.5 37 -6.1 21
08:10 1022 30.18 851 25.13 8.1 46.6 36 -6.2 20.8
08:15 1022 30.18 851 25.13 8 46.5 35 -6.4 20.4
08:20 1022 30.18 851 25.13 8.3 47 34 -6.7 19.9
08:25 1022 30.18 851 25.13 8.5 47.2 34 -6.4 20.5
08:30 1022 30.18 851 25.13 8.7 47.6 35 -6 21.2
08:35 1022 30.18 851 25.13 8.7 47.7 33 -6.5 20.3
08:40 1022 30.18 851 25.13 8.8 47.9 33 -6.5 20.2
08:45 1022 30.18 851 25.13 9.2 48.6 31 -6.9 19.5
08:50 1022 30.18 851 25.13 9.8 49.7 30 -6.9 19.6
08:55 1022 30.18 851 25.13 9.9 49.8 31 -6.6 20.1
09:00 1022 30.18 851 25.13 10.1 50.2 30 -6.8 19.8
09:05 1022 30.18 851 25.13 10.1 50.1 29 -6.9 19.5
09:10 1022 30.18 851 25.13 10.2 50.3 28 -7.4 18.8
09:15 1022 30.18 851 25.13 10.6 51 28 -7 19.5
09:20 1022 30.18 851 25.13 11 51.9 28 -6.8 19.7
09:25 1022 30.18 851 25.13 11.4 52.4 27 -6.8 19.7
09:30 1021 30.15 851 25.13 11.4 52.5 27 -7.1 19.2
09:35 1021 30.15 851 25.13 11.2 52.1 26 -7.4 18.7
09:40 1021 30.15 851 25.13 11.4 52.4 27 -7.2 19.1
09:45 1021 30.15 851 25.13 12.3 54.2 24 -7.5 18.5
09:50 1021 30.15 851 25.13 13.2 55.7 23 -7.3 18.9
09:55 1021 30.15 850 25.1 13.3 55.9 24 -6.6 20.2
10:00 1021 30.15 850 25.1 13.6 56.5 25 -6.2 20.8
10:05 1021 30.15 850 25.1 13.5 56.3 24 -6.4 20.5
10:10 1021 30.15 850 25.1 14 57.2 24 -6 21.1
10:15 1021 30.15 850 25.1 13.7 56.6 24 -6.2 20.8
10:20 1021 30.15 850 25.1 13.7 56.7 25 -6.2 20.9
10:25 1021 30.15 850 25.1 14.9 58.7 23 -5.9 21.4
10:30 1021 30.15 850 25.1 14.6 58.4 24 -5.7 21.7
10:35 1021 30.15 850 25.1 15.2 59.4 23 -5.6 21.9
10:40 1021 30.15 850 25.1 15.8 60.4 23 -5 22.9
10:45 1020 30.12 850 25.1 16.2 61.2 24 -4.2 24.4
10:50 1020 30.12 850 25.1 16.6 61.8 21 -6 21.3
10:55 1020 30.12 850 25.1 16.8 62.2 20 -6.1 21.1
11:00 1020 30.12 849 25.07 17 62.6 20 -5.9 21.4
11:05 1020 30.12 849 25.07 15.9 60.7 22 -6 21.2
11:10 1020 30.12 849 25.07 16.3 61.3 21 -6.2 20.8
11:15 1020 30.12 849 25.07 17.9 64.2 19 -5.8 21.6
11:20 1020 30.12 849 25.07 18.1 64.6 19 -5.7 21.8
11:25 1020 30.12 849 25.07 18.6 65.4 19 -5.5 22.1
11:30 1020 30.12 849 25.07 17.2 63 21 -5.3 22.4
11:35 1020 30.12 849 25.07 16.9 62.5 20 -5.9 21.4
11:40 1020 30.12 849 25.07 17.8 64.1 19 -6.3 20.7
11:45 1020 30.12 849 25.07 17.7 63.8 19 -6.4 20.5
11:50 1020 30.12 849 25.07 17.1 62.8 20 -5.7 21.8
11:55 1020 30.12 849 25.07 17.6 63.6 19 -6 21.3
12:00 1020 30.12 849 25.07 17.6 63.7 18 -6.8 19.8
12:05 1020 30.12 849 25.07 17.6 63.7 20 -5.7 21.7
12:10 1020 30.12 849 25.07 18 64.3 19 -5.9 21.4
12:15 1020 30.12 849 25.07 18.4 65 17 -7.1 19.3
12:20 1019 30.09 849 25.07 17.7 63.8 18 -7.1 19.2
12:25 1019 30.09 849 25.07 17.6 63.6 19 -6.6 20.2
12:30 1019 30.09 848 25.04 18.6 65.5 16 -7.8 18
12:35 1019 30.09 848 25.04 18.2 64.7 15 -8.7 16.3
12:40 1019 30.09 848 25.04 18.9 65.9 16 -7.2 19
12:45 1019 30.09 848 25.04 19.8 67.6 15 -7.9 17.7
12:50 1019 30.09 848 25.04 19.9 67.8 15 -7.7 18.1
12:55 1019 30.09 848 25.04 19.2 66.6 15 -7.6 18.4
13:00 1019 30.09 848 25.04 20.3 68.6 14 -7.9 17.8
13:05 1019 30.09 848 25.04 20 68.1 16 -6.8 19.7
13:10 1019 30.09 848 25.04 20 67.9 15 -7.5 18.5
13:15 1019 30.09 848 25.04 19.9 67.9 15 -7.5 18.4
13:20 1019 30.09 848 25.04 20 67.9 15 -7.3 18.8
13:25 1019 30.09 848 25.04 19.2 66.6 15 -7.6 18.3
13:30 1018 30.06 848 25.04 19.2 66.5 15 -8 17.6
13:35 1018 30.06 848 25.04 18.9 66 15 -7.9 17.8
13:40 1018 30.06 847 25.01 18.5 65.2 15 -8.2 17.2
13:45 1018 30.06 847 25.01 19 66.3 15 -8.4 16.9
13:50 1018 30.06 847 25.01 18.5 65.3 15 -8.4 16.9
13:55 1018 30.06 847 25.01 18.7 65.6 15 -8.4 16.9
14:00 1018 30.06 847 25.01 19.4 66.9 15 -7.9 17.8
14:05 1018 30.06 847 25.01 19.5 67.1 15 -7.7 18.2
14:10 1018 30.06 847 25.01 19.4 67 15 -7.7 18.1
14:15 1018 30.06 847 25.01 19 66.3 15 -8.3 17
14:20 1018 30.06 847 25.01 19.1 66.5 15 -7.7 18.2
14:25 1018 30.06 847 25.01 19.6 67.2 15 -7.7 18.1
14:30 1018 30.06 847 25.01 19.9 67.8 15 -7.5 18.6
14:35 1018 30.06 847 25.01 20.7 69.2 14 -7.7 18.2
14:40 1018 30.06 847 25.01 21.6 70.8 14 -7.1 19.2
14:45 1018 30.06 847 25.01 21.7 71.1 14 -7.2 19
14:50 1018 30.06 847 25.01 20.8 69.4 14 -7.2 19
14:55 1018 30.06 847 25.01 20.6 69.1 15 -7.1 19.3
15:00 1017 30.03 847 25.01 21.4 70.5 15 -6.2 20.8
15:05 1017 30.03 847 25.01 21.3 70.3 15 -6.3 20.6
15:10 1017 30.03 847 25.01 20.9 69.6 15 -6.5 20.3
15:15 1017 30.03 847 25.01 20.9 69.6 15 -6.7 20
15:20 1017 30.03 846 24.98 20 67.9 15 -6.9 19.6
15:25 1017 30.03 846 24.98 19.8 67.6 15 -7.5 18.4
15:30 1017 30.03 846 24.98 20.6 69.1 15 -6.8 19.7
15:35 1017 30.03 846 24.98 21.4 70.6 14 -6.8 19.7
15:40 1017 30.03 846 24.98 21.8 71.2 15 -6.2 20.8
15:45 1017 30.03 846 24.98 21.9 71.4 14 -6.5 20.4
15:50 1017 30.03 846 24.98 21.1 69.9 14 -6.9 19.6
15:55 1017 30.03 846 24.98 20.8 69.5 15 -6.7 19.9
16:00 1017 30.03 846 24.98 20.6 69 15 -6.5 20.3
16:05 1016 30 846 24.98 20.9 69.7 15 -6.6 20.1
16:10 1016 30 846 24.98 21 69.9 15 -6.2 20.9
16:15 1016 30 846 24.98 21.3 70.3 14 -7.1 19.3
16:20 1016 30 845 24.95 21.6 70.8 14 -6.6 20.1
16:25 1016 30 845 24.95 20.4 68.7 15 -7.1 19.2
16:30 1016 30 845 24.95 20.8 69.4 15 -6.9 19.5
16:35 1016 30 845 24.95 21.8 71.2 15 -5.8 21.6
16:40 1016 30 845 24.95 22.2 71.9 14 -6.4 20.4
16:45 1016 30 845 24.95 22.6 72.8 14 -6 21.2
16:50 1016 30 845 24.95 22.1 71.7 14 -6.1 21
16:55 1016 30 845 24.95 21.9 71.5 15 -5.9 21.3
17:00 1016 30 845 24.95 21.9 71.4 15 -5.9 21.5
17:05 1016 30 845 24.95 21.3 70.3 15 -5.8 21.5
17:10 1016 30 845 24.95 20.2 68.4 16 -6.4 20.5
17:15 1016 30 845 24.95 20.1 68.1 16 -6.6 20.1
17:20 1015 29.97 845 24.95 19.8 67.6 17 -6.1 21
17:25 1015 29.97 845 24.95 19.8 67.6 17 -6 21.1
17:30 1015 29.97 845 24.95 19.6 67.3 17 -5.7 21.7
17:35 1015 29.97 844 24.92 20 67.9 18 -5.2 22.6
17:40 1015 29.97 844 24.92 19.9 67.7 16 -6.5 20.3
17:45 1015 29.97 844 24.92 20 68 16 -6.3 20.6
17:50 1015 29.97 844 24.92 19.9 67.9 17 -5.5 22
17:55 1015 29.97 844 24.92 19.4 66.9 18 -5.7 21.7
18:00 1015 29.97 844 24.92 19.4 66.9 18 -5.1 22.8
18:05 1015 29.97 844 24.92 19.4 67 18 -5.1 22.9
18:10 1015 29.97 844 24.92 19.5 67 19 -4.4 24.1
18:15 1015 29.97 844 24.92 19.3 66.7 19 -4.5 23.9
18:20 1015 29.97 844 24.92 19.4 66.8 19 -4.4 24
18:25 1015 29.97 844 24.92 19.2 66.5 20 -4.4 24.1
18:30 1015 29.97 844 24.92 19.3 66.7 19 -4.6 23.7
18:35 1015 29.97 844 24.92 19.1 66.3 20 -4.5 24
18:40 1015 29.97 844 24.92 18.9 66.1 20 -4.6 23.7
18:45 1015 29.97 844 24.92 18.9 66.1 20 -4.4 24.2
18:50 1015 29.97 844 24.92 18.7 65.7 20 -4.4 24.1
18:55 1015 29.97 844 24.92 18.6 65.5 21 -4.1 24.6
19:00 1015 29.97 844 24.92 18.5 65.2 21 -4.1 24.6
19:05 1014 29.94 844 24.92 18.4 65.1 21 -4.1 24.7
19:10 1015 29.97 844 24.92 18.3 64.9 21 -4 24.8
19:15 1015 29.97 844 24.92 18.2 64.8 21 -4.3 24.2
19:20 1015 29.97 844 24.92 18.1 64.5 22 -4.1 24.7
19:25 1015 29.97 844 24.92 18 64.5 21 -4.3 24.3
19:30 1015 29.97 844 24.92 18 64.3 22 -4.1 24.6
19:35 1014 29.94 844 24.92 17.8 64.1 22 -4.3 24.2
19:40 1015 29.97 844 24.92 17.7 63.9 22 -4.1 24.5
19:45 1015 29.97 844 24.92 17.6 63.7 22 -4.2 24.4
19:50 1015 29.97 844 24.92 17.6 63.7 22 -4.2 24.5
19:55 1015 29.97 844 24.92 17.4 63.4 23 -4.1 24.7
20:00 1015 29.97 844 24.92 17.3 63.2 22 -4.3 24.3
20:05 1015 29.97 844 24.92 17.2 62.9 23 -4 24.7
20:10 1015 29.97 844 24.92 17 62.7 23 -3.9 25
20:15 1015 29.97 844 24.92 16.9 62.4 24 -3.7 25.4
20:20 1015 29.97 844 24.92 16.7 62.1 25 -3.5 25.7
20:25 1015 29.97 844 24.92 16.6 61.8 25 -3.7 25.4
20:30 1015 29.97 844 24.92 16.5 61.6 25 -3.4 25.9
20:35 1015 29.97 844 24.92 16.4 61.5 25 -3.8 25.1
20:40 1015 29.97 844 24.92 16.4 61.6 25 -3.6 25.4
20:45 1015 29.97 844 24.92 16.3 61.4 25 -3.4 25.9
20:50 1015 29.97 844 24.92 16.2 61.2 25 -3.6 25.5
20:55 1015 29.97 844 24.92 16.3 61.3 25 -3.8 25.2
21:00 1015 29.97 844 24.92 16.2 61.1 25 -4 24.9
21:05 1015 29.97 844 24.92 16.3 61.3 24 -4.3 24.3
21:10 1015 29.97 844 24.92 16.5 61.7 23 -4.5 23.8
21:15 1015 29.97 845 24.95 16.5 61.7 24 -4.3 24.3
21:20 1015 29.97 845 24.95 16.5 61.7 24 -4 24.8
21:25 1015 29.97 845 24.95 16.4 61.6 24 -4.2 24.5
21:30 1016 30 845 24.95 16.8 62.2 24 -3.7 25.3
21:35 1016 30 845 24.95 16.8 62.2 25 -3.3 26.1
21:40 1016 30 845 24.95 16.7 62 25 -3.4 25.9
21:45 1016 30 845 24.95 16.6 61.9 27 -2.6 27.4
21:50 1016 30 845 24.95 16.6 61.9 27 -2.2 28.1
21:55 1016 30 846 24.98 16.7 62 30 -0.8 30.5
22:00 1016 30 846 24.98 16.2 61.1 30 -1.2 29.9
22:05 1017 30.03 846 24.98 16.1 61 30 -1.3 29.7
22:10 1017 30.03 846 24.98 16.2 61.1 31 -0.9 30.4
22:15 1017 30.03 846 24.98 16 60.9 32 -0.6 30.9
22:20 1017 30.03 846 24.98 15.8 60.5 33 -0.3 31.5
22:25 1017 30.03 846 24.98 15.7 60.3 34 0 32
22:30 1017 30.03 846 24.98 15.5 59.9 36 0.4 32.8
22:35 1017 30.03 846 24.98 15.3 59.5 37 0.8 33.5
22:40 1017 30.03 846 24.98 15 59 38 1 33.8
22:45 1017 30.03 846 24.98 14.7 58.5 40 1.5 34.7
22:50 1017 30.03 846 24.98 14.5 58 41 1.4 34.6
22:55 1017 30.03 846 24.98 14.4 57.8 42 1.8 35.3
23:00 1017 30.03 846 24.98 13.9 57 45 2.3 36.1
23:05 1017 30.03 846 24.98 13.8 56.8 46 2.5 36.5
23:10 1017 30.03 846 24.98 13.7 56.6 47 2.7 36.9
23:15 1017 30.03 846 24.98 13.5 56.3 48 2.9 37.2
23:20 1016 30 846 24.98 13.3 55.9 49 2.9 37.2
23:25 1016 30 846 24.98 13.2 55.7 48 2.6 36.7
23:30 1016 30 845 24.95 13 55.4 49 2.6 36.8
23:35 1016 30 845 24.95 13 55.4 49 2.7 36.9
23:40 1016 30 845 24.95 12.9 55.2 50 2.8 37
23:45 1016 30 845 24.95 12.7 54.9 51 2.8 37.1
23:50 1016 30 845 24.95 12.6 54.8 52 3.2 37.8
23:55 1016 30 845 24.95 12.5 54.4 53 3.3 38
24:00 1016 30 845 24.95 12.3 54.1 55 3.7 38.6